createdAt,value
2023-02-17T00:02:15.682Z,12.30
2023-02-17T00:04:43.712Z,10.48
2023-02-17T00:07:11.557Z,11.00
2023-02-17T00:09:39.510Z,10.18
2023-02-17T00:12:07.982Z,13.88
2023-02-17T00:14:37.626Z,13.32
2023-02-17T00:17:05.505Z,10.68
2023-02-17T00:19:33.731Z,11.15
2023-02-17T00:22:02.691Z,9.75
2023-02-17T00:24:33.040Z,10.68
2023-02-17T00:27:01.140Z,10.73
2023-02-17T00:29:29.196Z,11.68
2023-02-17T00:31:58.581Z,13.02
2023-02-17T00:34:27.979Z,12.27
2023-02-17T00:36:55.884Z,10.05
2023-02-17T00:39:23.878Z,11.82
2023-02-17T00:41:51.768Z,11.25
2023-02-17T00:44:21.977Z,11.80
2023-02-17T00:46:53.307Z,11.57
2023-02-17T00:49:24.589Z,12.10
2023-02-17T00:51:52.961Z,12.60
2023-02-17T00:54:21.198Z,10.00
2023-02-17T00:56:49.089Z,11.02
2023-02-17T00:59:16.960Z,10.55
2023-02-17T01:01:44.967Z,9.75
2023-02-17T01:04:12.984Z,12.38
2023-02-17T01:06:42.444Z,11.90
2023-02-17T01:09:14.167Z,12.30
2023-02-17T01:11:43.811Z,11.68
2023-02-17T01:14:13.643Z,10.50
2023-02-17T01:16:44.837Z,11.63
2023-02-17T01:19:15.953Z,11.82
2023-02-17T01:21:45.735Z,11.57
2023-02-17T01:24:14.605Z,11.65
2023-02-17T01:26:42.462Z,13.05
2023-02-17T01:29:10.356Z,11.82
2023-02-17T01:31:38.523Z,9.80
2023-02-17T01:34:06.690Z,11.40
2023-02-17T01:36:34.724Z,9.82
2023-02-17T01:39:04.493Z,10.57
2023-02-17T01:41:32.363Z,10.77
2023-02-17T01:44:13.416Z,11.30
2023-02-17T01:46:42.597Z,11.05
2023-02-17T01:49:20.869Z,11.00
2023-02-17T01:51:53.643Z,10.70
2023-02-17T01:54:30.220Z,10.70
2023-02-17T01:57:00.117Z,10.35
2023-02-17T01:59:30.708Z,11.40
2023-02-17T02:02:01.866Z,11.20
2023-02-17T02:04:33.524Z,10.93
2023-02-17T02:07:04.847Z,10.75
2023-02-17T02:09:39.442Z,10.73
2023-02-17T02:12:18.273Z,12.63
2023-02-17T02:14:46.602Z,12.05
2023-02-17T02:17:24.582Z,11.38
2023-02-17T02:20:24.290Z,11.73
2023-02-17T02:23:12.574Z,12.35
2023-02-17T02:26:11.872Z,12.60
2023-02-17T02:28:58.688Z,12.82
2023-02-17T02:31:40.213Z,13.95
2023-02-17T02:34:16.420Z,13.75
2023-02-17T02:36:48.354Z,14.93
2023-02-17T02:39:19.957Z,12.95
2023-02-17T02:41:51.278Z,15.63
2023-02-17T02:44:21.637Z,13.18
2023-02-17T02:46:57.910Z,15.15
2023-02-17T02:49:28.218Z,14.10
2023-02-17T02:52:04.315Z,14.35
2023-02-17T02:54:41.531Z,13.70
2023-02-17T02:57:21.322Z,13.88
2023-02-17T03:00:04.147Z,14.95
2023-02-17T03:02:39.374Z,13.73
2023-02-17T03:05:15.659Z,13.00
2023-02-17T03:07:50.252Z,14.32
2023-02-17T03:10:18.758Z,15.57
2023-02-17T03:12:46.881Z,15.38
2023-02-17T03:15:24.658Z,14.95
2023-02-17T03:17:52.585Z,14.23
2023-02-17T03:20:22.688Z,15.23
2023-02-17T03:22:51.000Z,14.27
2023-02-17T03:25:18.991Z,15.18
2023-02-17T03:27:47.654Z,15.02
2023-02-17T03:30:16.499Z,15.43
2023-02-17T03:32:44.730Z,16.13
2023-02-17T03:35:12.673Z,14.30
2023-02-17T03:37:41.923Z,14.00
2023-02-17T03:40:10.508Z,14.85
2023-02-17T03:42:38.440Z,14.43
2023-02-17T03:45:06.883Z,16.10
2023-02-17T03:47:34.784Z,16.02
2023-02-17T03:50:02.710Z,15.52
2023-02-17T03:52:30.628Z,15.15
2023-02-17T03:55:00.023Z,12.90
2023-02-17T03:57:27.929Z,15.32
2023-02-17T03:59:55.822Z,15.40
2023-02-17T04:02:23.767Z,15.57
2023-02-17T04:04:51.672Z,15.98
2023-02-17T04:07:19.604Z,16.27
2023-02-17T04:09:47.459Z,16.80
2023-02-17T04:12:16.696Z,15.10
2023-02-17T04:14:44.660Z,15.70
2023-02-17T04:17:12.644Z,15.52
2023-02-17T04:19:40.536Z,17.02
2023-02-17T04:22:08.974Z,15.25
2023-02-17T04:24:37.685Z,16.30
2023-02-17T04:27:05.651Z,13.57
2023-02-17T04:29:34.919Z,14.00
2023-02-17T04:32:02.917Z,15.55
2023-02-17T04:34:31.086Z,15.10
2023-02-17T04:36:58.939Z,16.95
2023-02-17T04:39:26.909Z,14.35
2023-02-17T04:41:54.780Z,12.50
2023-02-17T04:44:22.703Z,14.50
2023-02-17T04:46:51.970Z,15.32
2023-02-17T04:49:19.877Z,14.77
2023-02-17T04:51:47.913Z,13.63
2023-02-17T04:54:16.045Z,16.05
2023-02-17T04:56:43.959Z,14.10
2023-02-17T04:59:11.922Z,14.48
2023-02-17T05:01:40.033Z,15.07
2023-02-17T05:04:09.520Z,15.85
2023-02-17T05:06:37.538Z,15.10
2023-02-17T05:09:05.502Z,14.88
2023-02-17T05:11:33.510Z,15.23
2023-02-17T05:14:01.468Z,13.30
2023-02-17T05:16:29.383Z,13.70
2023-02-17T05:18:57.308Z,15.93
2023-02-17T05:21:26.840Z,13.50
2023-02-17T05:23:54.755Z,14.00
2023-02-17T05:26:22.876Z,13.60
2023-02-17T05:28:50.982Z,13.45
2023-02-17T05:31:19.350Z,13.82
2023-02-17T05:33:47.385Z,16.20
2023-02-17T05:36:17.643Z,14.52
2023-02-17T05:38:49.224Z,15.52
2023-02-17T05:41:17.677Z,15.98
2023-02-17T05:43:45.730Z,16.38
2023-02-17T05:46:14.124Z,15.77
2023-02-17T05:48:42.809Z,15.60
2023-02-17T05:51:11.230Z,16.10
2023-02-17T05:53:39.259Z,15.27
2023-02-17T05:56:10.420Z,14.52
2023-02-17T05:58:38.507Z,15.35
2023-02-17T06:01:09.409Z,13.82
2023-02-17T06:03:37.468Z,15.85
2023-02-17T06:06:07.436Z,13.93
2023-02-17T06:08:35.867Z,14.52
2023-02-17T06:11:04.334Z,14.32
2023-02-17T06:13:33.724Z,16.00
2023-02-17T06:16:01.812Z,14.57
2023-02-17T06:18:30.017Z,12.60
2023-02-17T06:20:58.906Z,14.60
2023-02-17T06:23:27.871Z,14.88
2023-02-17T06:25:56.375Z,13.23
2023-02-17T06:28:24.466Z,13.05
2023-02-17T06:30:53.772Z,15.48
2023-02-17T06:33:21.921Z,13.60
2023-02-17T06:35:50.908Z,12.45
2023-02-17T06:38:22.004Z,13.68
2023-02-17T06:40:50.020Z,14.07
2023-02-17T06:43:18.044Z,15.40
2023-02-17T06:45:46.387Z,13.68
2023-02-17T06:48:15.698Z,12.52
2023-02-17T06:50:43.737Z,11.98
2023-02-17T06:53:11.841Z,12.40
2023-02-17T06:55:40.019Z,12.85
2023-02-17T06:58:08.568Z,12.02
2023-02-17T07:00:36.498Z,12.20
2023-02-17T07:03:04.850Z,12.25
2023-02-17T07:05:36.110Z,13.48
2023-02-17T07:08:04.676Z,11.57
2023-02-17T07:10:33.070Z,11.43
2023-02-17T07:13:01.187Z,10.13
2023-02-17T07:15:29.213Z,11.13
2023-02-17T07:17:57.174Z,11.65
2023-02-17T07:20:25.193Z,11.80
2023-02-17T07:22:54.527Z,10.20
2023-02-17T07:25:22.603Z,10.77
2023-02-17T07:27:50.663Z,9.82
2023-02-17T07:30:18.925Z,9.75
2023-02-17T07:32:46.920Z,11.43
2023-02-17T07:35:18.222Z,9.75
2023-02-17T07:37:46.192Z,10.82
2023-02-17T07:40:15.801Z,8.55
2023-02-17T07:42:43.914Z,10.30
2023-02-17T07:45:11.958Z,11.05
2023-02-17T07:47:39.937Z,9.98
2023-02-17T07:50:09.665Z,8.82
2023-02-17T07:52:37.740Z,7.38
2023-02-17T07:55:06.567Z,9.23
2023-02-17T07:57:38.640Z,8.75
2023-02-17T08:00:10.543Z,9.10
2023-02-17T08:02:41.862Z,9.98
2023-02-17T08:05:09.930Z,9.07
2023-02-17T08:07:37.896Z,7.40
2023-02-17T08:10:24.654Z,9.30
2023-02-17T08:13:11.644Z,8.27
2023-02-17T08:15:39.528Z,8.73
2023-02-17T08:18:07.527Z,8.02
2023-02-17T08:20:35.620Z,9.43
2023-02-17T08:23:04.423Z,7.60
2023-02-17T08:25:33.801Z,8.85
2023-02-17T08:28:04.706Z,9.00
2023-02-17T08:30:32.841Z,8.52
2023-02-17T08:33:01.121Z,8.57
2023-02-17T08:35:29.292Z,8.43
2023-02-17T08:37:59.937Z,7.78
2023-02-17T08:40:27.960Z,8.30
2023-02-17T08:42:55.968Z,9.68
2023-02-17T08:45:26.572Z,8.38
2023-02-17T08:47:54.589Z,9.73
2023-02-17T08:50:23.710Z,8.48
2023-02-17T08:52:52.005Z,8.25
2023-02-17T08:55:20.283Z,7.78
2023-02-17T08:57:48.524Z,8.23
2023-02-17T09:00:18.077Z,8.52
2023-02-17T09:02:47.478Z,7.88
2023-02-17T09:05:16.283Z,8.32
2023-02-17T09:07:44.254Z,8.25
2023-02-17T09:10:13.323Z,8.93
2023-02-17T09:12:41.779Z,9.02
2023-02-17T09:15:10.268Z,8.93
2023-02-17T09:17:40.905Z,8.27
2023-02-17T09:20:24.024Z,9.40
2023-02-17T09:22:53.220Z,7.45
2023-02-17T09:25:21.238Z,8.93
2023-02-17T09:27:49.665Z,9.30
2023-02-17T09:30:18.093Z,9.57
2023-02-17T09:32:46.245Z,8.57
2023-02-17T09:35:19.153Z,10.05
2023-02-17T09:37:47.296Z,9.50
2023-02-17T09:40:19.329Z,8.38
2023-02-17T09:42:48.194Z,9.13
2023-02-17T09:45:22.098Z,8.30
2023-02-17T09:47:54.853Z,9.32
2023-02-17T09:50:30.492Z,8.55
2023-02-17T09:53:04.534Z,8.68
2023-02-17T09:55:36.721Z,8.20
2023-02-17T09:58:13.746Z,9.75
2023-02-17T10:00:46.109Z,7.88
2023-02-17T10:03:19.993Z,8.60
2023-02-17T10:05:54.330Z,8.75
2023-02-17T10:08:26.832Z,9.75
2023-02-17T10:11:00.592Z,8.68
2023-02-17T10:13:35.719Z,9.20
2023-02-17T10:16:10.784Z,9.55
2023-02-17T10:18:50.421Z,8.88
2023-02-17T10:21:26.426Z,8.90
2023-02-17T10:23:58.097Z,9.82
2023-02-17T10:26:43.135Z,9.75
2023-02-17T10:29:20.834Z,11.68
2023-02-17T10:32:03.211Z,10.15
2023-02-17T10:34:36.951Z,8.70
2023-02-17T10:37:15.828Z,9.75
2023-02-17T10:39:49.546Z,9.93
2023-02-17T10:42:22.969Z,10.48
2023-02-17T10:44:53.526Z,9.65
2023-02-17T10:47:23.250Z,10.63
2023-02-17T10:49:54.192Z,10.48
2023-02-17T10:52:28.712Z,9.98
2023-02-17T10:55:06.587Z,10.63
2023-02-17T10:57:41.958Z,9.98
2023-02-17T11:00:18.165Z,10.00
2023-02-17T11:02:47.740Z,9.68
2023-02-17T11:05:24.521Z,10.77
2023-02-17T11:08:00.762Z,10.27
2023-02-17T11:10:32.412Z,8.77
2023-02-17T11:13:02.646Z,10.18
2023-02-17T11:15:35.224Z,9.52
2023-02-17T11:18:11.600Z,10.68
2023-02-17T11:20:40.034Z,9.43
2023-02-17T11:23:24.122Z,10.10
2023-02-17T11:26:04.824Z,9.35
2023-02-17T11:28:33.106Z,9.45
2023-02-17T11:31:04.795Z,9.60
2023-02-17T11:33:35.855Z,8.25
2023-02-17T11:36:07.540Z,8.48
2023-02-17T11:38:45.730Z,8.30
2023-02-17T11:41:13.897Z,8.65
2023-02-17T11:43:53.235Z,8.52
2023-02-17T11:46:30.757Z,8.18
2023-02-17T11:49:31.984Z,7.65
2023-02-17T11:52:13.149Z,7.88
2023-02-17T11:54:56.397Z,8.20
2023-02-17T11:57:38.650Z,6.93
2023-02-17T12:00:16.946Z,7.22
2023-02-17T12:03:19.364Z,6.43
2023-02-17T12:06:05.473Z,6.32
2023-02-17T12:08:47.557Z,5.80
2023-02-17T12:11:29.730Z,6.72
2023-02-17T12:14:09.315Z,7.25
2023-02-17T12:16:47.404Z,6.07
2023-02-17T12:19:32.475Z,5.50
2023-02-17T12:22:09.847Z,5.70
2023-02-17T12:25:04.464Z,5.05
2023-02-17T12:27:47.782Z,4.93
2023-02-17T12:30:48.129Z,5.40
2023-02-17T12:33:35.876Z,4.80
2023-02-17T12:36:08.754Z,5.45
2023-02-17T12:38:42.780Z,4.18
2023-02-17T12:41:17.544Z,4.85
2023-02-17T12:43:50.643Z,3.70
2023-02-17T12:46:23.813Z,4.32
2023-02-17T12:48:56.789Z,4.82
2023-02-17T12:51:31.756Z,4.55
2023-02-17T12:54:07.425Z,4.05
2023-02-17T12:56:48.043Z,4.30
2023-02-17T12:59:21.078Z,4.03
2023-02-17T13:01:55.487Z,4.18
2023-02-17T13:07:00.710Z,3.08
2023-02-17T13:09:35.002Z,3.53
2023-02-17T13:14:48.332Z,3.90
2023-02-17T13:17:25.114Z,2.97
2023-02-17T13:20:05.582Z,3.40
2023-02-17T13:22:33.827Z,3.55
2023-02-17T13:25:03.247Z,3.33
2023-02-17T13:27:34.882Z,3.30
2023-02-17T13:32:39.698Z,3.17
2023-02-17T13:35:18.879Z,3.65
2023-02-17T13:37:47.471Z,3.10
2023-02-17T13:40:44.484Z,3.53
2023-02-17T13:43:16.984Z,2.97
2023-02-17T13:45:50.266Z,3.10
2023-02-17T13:48:27.157Z,3.15
2023-02-17T13:50:58.058Z,3.20
2023-02-17T13:53:32.055Z,2.85
2023-02-17T13:56:02.348Z,2.85
2023-02-17T13:58:33.047Z,2.80
2023-02-17T14:01:04.251Z,3.10
2023-02-17T14:04:00.459Z,2.90
2023-02-17T14:06:37.727Z,2.92
2023-02-17T14:09:14.821Z,2.25
2023-02-17T14:11:42.988Z,2.63
2023-02-17T14:14:12.347Z,3.03
2023-02-17T14:16:44.328Z,2.28
2023-02-17T14:19:14.700Z,2.60
2023-02-17T14:21:44.578Z,2.40
2023-02-17T14:24:26.805Z,2.35
2023-02-17T14:26:59.196Z,2.60
2023-02-17T14:29:27.698Z,2.88
2023-02-17T14:31:57.076Z,2.55
2023-02-17T14:34:29.765Z,2.78
2023-02-17T14:37:09.918Z,2.85
2023-02-17T14:39:38.589Z,2.90
2023-02-17T14:42:06.757Z,2.78
2023-02-17T14:44:34.653Z,2.42
2023-02-17T14:47:04.084Z,2.90
2023-02-17T14:49:32.243Z,3.42
2023-02-17T14:52:02.927Z,3.10
2023-02-17T14:54:31.371Z,3.30
2023-02-17T14:57:06.128Z,3.22
2023-02-17T14:59:36.810Z,3.58
2023-02-17T15:02:12.689Z,3.08
2023-02-17T15:04:40.697Z,3.65
2023-02-17T15:07:13.356Z,3.90
2023-02-17T15:09:44.767Z,3.58
2023-02-17T15:12:16.328Z,4.38
2023-02-17T15:14:46.038Z,4.85
2023-02-17T15:17:15.927Z,4.38
2023-02-17T15:19:45.049Z,4.18
2023-02-17T15:22:13.671Z,7.93
2023-02-17T15:24:44.731Z,5.90
2023-02-17T15:27:16.898Z,4.28
2023-02-17T15:29:44.774Z,4.25
2023-02-17T15:32:18.862Z,4.97
2023-02-17T15:34:47.298Z,4.97
2023-02-17T15:37:15.530Z,4.82
2023-02-17T15:39:43.816Z,4.25
2023-02-17T15:42:15.158Z,5.25
2023-02-17T15:44:47.004Z,5.65
2023-02-17T15:47:19.609Z,5.55
2023-02-17T15:49:47.880Z,6.05
2023-02-17T15:52:16.256Z,6.03
2023-02-17T15:54:45.177Z,5.68
2023-02-17T15:57:21.020Z,5.72
2023-02-17T15:59:49.337Z,6.00
2023-02-17T16:02:21.675Z,5.70
2023-02-17T16:04:49.944Z,5.18
2023-02-17T16:07:17.932Z,4.97
2023-02-17T16:09:45.893Z,5.25
2023-02-17T16:12:18.638Z,5.07
2023-02-17T16:14:47.244Z,5.82
2023-02-17T16:17:18.075Z,4.32
2023-02-17T16:19:49.110Z,4.47
2023-02-17T16:22:19.270Z,4.82
2023-02-17T16:24:47.284Z,4.90
2023-02-17T16:27:17.235Z,5.30
2023-02-17T16:29:45.244Z,4.53
2023-02-17T16:32:14.091Z,5.00
2023-02-17T16:34:45.633Z,5.03
2023-02-17T16:37:18.139Z,4.85
2023-02-17T16:39:46.994Z,4.47
2023-02-17T16:42:15.884Z,3.63
2023-02-17T16:44:44.278Z,5.18
2023-02-17T16:47:23.775Z,4.05
2023-02-17T16:49:53.157Z,4.30
2023-02-17T16:52:27.445Z,3.05
2023-02-17T16:57:23.590Z,2.78
2023-02-17T16:59:51.543Z,3.72
2023-02-17T17:02:21.662Z,3.58
2023-02-17T17:04:50.785Z,3.28
2023-02-17T17:07:20.019Z,3.17
2023-02-17T17:10:12.639Z,2.92
2023-02-17T17:12:36.406Z,3.20
2023-02-17T17:15:05.252Z,2.53
2023-02-17T17:17:38.459Z,2.92
2023-02-17T17:20:07.706Z,2.95
2023-02-17T17:22:37.115Z,2.90
2023-02-17T17:25:05.503Z,2.53
2023-02-17T17:27:33.683Z,2.58
2023-02-17T17:30:01.693Z,2.40
2023-02-17T17:32:29.899Z,2.50
2023-02-17T17:34:57.917Z,2.60
2023-02-17T17:37:25.836Z,2.28
2023-02-17T17:39:55.251Z,2.00
2023-02-17T17:42:23.216Z,2.20
2023-02-17T17:44:51.086Z,2.40
2023-02-17T17:47:29.362Z,2.60
2023-02-17T17:49:58.379Z,2.40
2023-02-17T17:52:26.516Z,2.13
2023-02-17T17:54:55.749Z,2.58
2023-02-17T17:57:23.691Z,2.63
2023-02-17T17:59:52.019Z,20.15
2023-02-17T18:02:19.934Z,1.83
2023-02-17T18:04:48.103Z,2.53
2023-02-17T18:07:16.249Z,2.25
2023-02-17T18:09:44.424Z,3.53
2023-02-17T18:12:18.855Z,3.83
2023-02-17T18:14:50.365Z,3.65
2023-02-17T18:17:20.410Z,1.85
2023-02-17T18:19:49.196Z,1.80
2023-02-17T18:22:17.149Z,1.23
2023-02-17T18:24:47.302Z,1.50
2023-02-17T18:27:16.878Z,1.52
2023-02-17T18:29:44.900Z,1.15
2023-02-17T18:32:12.844Z,1.40
2023-02-17T18:34:40.946Z,1.40
2023-02-17T18:37:08.850Z,1.20
2023-02-17T18:39:36.778Z,1.40
2023-02-17T18:42:05.242Z,1.98
2023-02-17T18:44:34.817Z,1.52
2023-02-17T18:47:02.713Z,1.02
2023-02-17T18:49:30.639Z,1.58
2023-02-17T18:51:58.695Z,1.38
2023-02-17T18:54:26.693Z,1.30
2023-02-17T18:56:54.634Z,1.27
2023-02-17T18:59:22.682Z,1.83
2023-02-17T19:01:51.914Z,1.23
2023-02-17T19:04:19.821Z,1.30
2023-02-17T19:06:47.715Z,0.93
2023-02-17T19:09:15.665Z,1.55
2023-02-17T19:11:43.642Z,1.15
2023-02-17T19:14:12.317Z,1.08
2023-02-17T19:16:40.487Z,0.90
2023-02-17T19:19:09.800Z,1.00
2023-02-17T19:21:37.736Z,0.65
2023-02-17T19:24:06.228Z,0.70
2023-02-17T19:26:34.495Z,0.85
2023-02-17T19:29:02.577Z,0.60
2023-02-17T19:31:30.727Z,1.35
2023-02-17T19:33:58.852Z,1.00
2023-02-17T19:36:28.737Z,1.42
2023-02-17T19:39:00.886Z,1.48
2023-02-17T19:41:29.723Z,1.20
2023-02-17T19:43:57.822Z,1.27
2023-02-17T19:46:26.004Z,0.85
2023-02-17T19:48:54.057Z,1.30
2023-02-17T19:51:22.196Z,1.05
2023-02-17T19:53:51.529Z,0.85
2023-02-17T19:56:22.037Z,0.88
2023-02-17T19:58:53.631Z,0.93
2023-02-17T20:01:38.138Z,1.02
2023-02-17T20:04:08.245Z,1.38
2023-02-17T20:06:40.749Z,1.77
2023-02-17T20:09:14.445Z,1.30
2023-02-17T20:11:44.216Z,1.08
2023-02-17T20:14:14.416Z,0.65
2023-02-17T20:16:42.577Z,0.50
2023-02-17T20:19:13.221Z,1.00
2023-02-17T20:21:44.704Z,0.90
2023-02-17T20:24:15.096Z,1.33
2023-02-17T20:26:45.937Z,0.90
2023-02-17T20:29:14.444Z,0.70
2023-02-17T20:31:44.426Z,1.00
2023-02-17T20:34:24.860Z,1.33
2023-02-17T20:36:54.788Z,0.93
2023-02-17T20:39:26.865Z,1.17
2023-02-17T20:41:55.855Z,0.90
2023-02-17T20:44:28.279Z,2.00
2023-02-17T20:46:59.064Z,1.15
2023-02-17T20:49:27.737Z,1.75
2023-02-17T20:51:55.778Z,1.63
2023-02-17T20:54:26.103Z,1.50
2023-02-17T20:57:01.117Z,2.78
2023-02-17T20:59:33.455Z,0.88
2023-02-17T21:02:01.426Z,1.83
2023-02-17T21:04:29.425Z,1.02
2023-02-17T21:06:57.349Z,1.15
2023-02-17T21:09:26.615Z,0.93
2023-02-17T21:11:57.147Z,1.33
2023-02-17T21:14:25.107Z,0.95
2023-02-17T21:16:53.105Z,1.63
2023-02-17T21:19:22.089Z,1.10
2023-02-17T21:21:50.030Z,1.23
2023-02-17T21:24:20.619Z,1.67
2023-02-17T21:26:49.948Z,1.92
2023-02-17T21:29:20.712Z,0.90
2023-02-17T21:31:51.282Z,1.52
2023-02-17T21:34:20.574Z,0.80
2023-02-17T21:36:50.426Z,0.85
2023-02-17T21:39:19.505Z,2.20
2023-02-17T21:41:47.399Z,1.17
2023-02-17T21:44:35.112Z,0.85
2023-02-17T21:47:02.989Z,1.50
2023-02-17T21:49:33.439Z,1.50
2023-02-17T21:52:01.347Z,0.80
2023-02-17T21:54:29.423Z,1.35
2023-02-17T21:56:57.394Z,1.67
2023-02-17T21:59:27.652Z,1.40
2023-02-17T22:01:55.640Z,1.27
2023-02-17T22:04:23.813Z,1.50
2023-02-17T22:06:51.814Z,0.80
2023-02-17T22:09:19.732Z,1.23
2023-02-17T22:11:49.897Z,1.20
2023-02-17T22:14:19.976Z,1.67
2023-02-17T22:16:52.434Z,1.48
2023-02-17T22:19:22.803Z,1.42
2023-02-17T22:21:52.010Z,1.58
2023-02-17T22:24:21.291Z,1.70
2023-02-17T22:26:50.069Z,1.60
2023-02-17T22:29:18.017Z,1.17
2023-02-17T22:31:46.289Z,1.35
2023-02-17T22:34:19.751Z,2.38
2023-02-17T22:36:47.605Z,1.17
2023-02-17T22:39:16.397Z,1.10
2023-02-17T22:41:46.881Z,0.90
2023-02-17T22:44:14.775Z,1.25
2023-02-17T22:46:42.706Z,1.40
2023-02-17T22:49:16.834Z,0.85
2023-02-17T22:51:45.021Z,1.45
2023-02-17T22:54:15.838Z,1.80
2023-02-17T22:56:43.741Z,1.65
2023-02-17T22:59:13.245Z,2.35
2023-02-17T23:01:41.227Z,1.38
2023-02-17T23:04:09.868Z,1.83
2023-02-17T23:06:39.184Z,1.33
2023-02-17T23:09:13.175Z,1.40
2023-02-17T23:11:51.172Z,1.00
2023-02-17T23:14:21.322Z,1.33
2023-02-17T23:16:49.644Z,0.82
2023-02-17T23:19:19.767Z,1.20
2023-02-17T23:21:50.373Z,1.45
2023-02-17T23:24:18.849Z,1.17
2023-02-17T23:26:47.381Z,1.73
2023-02-17T23:29:16.236Z,1.77
2023-02-17T23:31:44.193Z,2.20
2023-02-17T23:34:13.567Z,1.77
2023-02-17T23:36:42.068Z,1.35
2023-02-17T23:39:11.817Z,2.67
2023-02-17T23:41:40.392Z,1.73
2023-02-17T23:44:10.504Z,1.27
2023-02-17T23:46:39.746Z,1.00
2023-02-17T23:49:08.062Z,1.50
2023-02-17T23:51:35.968Z,1.48
2023-02-17T23:54:04.636Z,1.48
2023-02-17T23:56:35.950Z,2.10
2023-02-17T23:59:04.180Z,2.78
